createdAt,value
2017-08-06T00:00:15.677Z,48.5
2017-08-06T00:01:17.819Z,48.5
2017-08-06T00:02:19.620Z,48.5
2017-08-06T00:03:21.066Z,48.6
2017-08-06T00:04:23.194Z,48.4
2017-08-06T00:05:24.992Z,48.4
2017-08-06T00:06:27.122Z,48.6
2017-08-06T00:07:28.919Z,48.5
2017-08-06T00:08:30.723Z,48.5
2017-08-06T00:09:32.526Z,48.6
2017-08-06T00:10:34.650Z,48.6
2017-08-06T00:11:36.449Z,48.4
2017-08-06T00:12:38.226Z,48.7
2017-08-06T00:13:40.355Z,48.4
2017-08-06T00:14:42.485Z,48.4
2017-08-06T00:15:44.264Z,48.4
2017-08-06T00:16:46.061Z,48.6
2017-08-06T00:17:47.877Z,48.5
2017-08-06T00:18:49.673Z,48.5
2017-08-06T00:19:51.142Z,48.5
2017-08-06T00:20:53.276Z,48.5
2017-08-06T00:21:55.408Z,48.5
2017-08-06T00:22:57.181Z,48.6
2017-08-06T00:23:59.310Z,48.5
2017-08-06T00:25:01.108Z,48.5
2017-08-06T00:26:02.554Z,48.6
2017-08-06T00:27:04.022Z,48.5
2017-08-06T00:28:05.818Z,48.5
2017-08-06T00:29:07.621Z,48.5
2017-08-06T00:30:09.751Z,48.4
2017-08-06T00:31:11.553Z,48.6
2017-08-06T00:32:13.352Z,48.4
2017-08-06T00:33:15.152Z,48.5
2017-08-06T00:34:17.293Z,48.6
2017-08-06T00:35:19.424Z,48.6
2017-08-06T00:36:20.902Z,48.5
2017-08-06T00:37:23.035Z,48.6
2017-08-06T00:38:25.166Z,48.4
2017-08-06T00:39:27.297Z,48.5
2017-08-06T00:40:29.095Z,48.4
2017-08-06T00:41:31.259Z,48.5
2017-08-06T00:42:33.059Z,48.5
2017-08-06T00:43:35.190Z,48.5
2017-08-06T00:44:37.319Z,48.6
2017-08-06T00:45:39.120Z,48.5
2017-08-06T00:46:41.251Z,48.7
2017-08-06T00:47:42.701Z,48.4
2017-08-06T00:48:44.828Z,48.4
2017-08-06T00:49:46.627Z,48.4
2017-08-06T00:50:48.757Z,48.5
2017-08-06T00:51:50.890Z,48.5
2017-08-06T00:52:52.692Z,48.6
2017-08-06T00:53:54.828Z,48.6
2017-08-06T00:54:56.624Z,48.5
2017-08-06T00:55:58.755Z,48.5
2017-08-06T00:57:00.887Z,48.4
2017-08-06T00:58:02.744Z,48.5
2017-08-06T00:59:04.872Z,48.7
2017-08-06T01:00:06.674Z,48.6
2017-08-06T01:01:08.804Z,48.4
2017-08-06T01:02:10.936Z,48.4
2017-08-06T01:03:12.401Z,48.5
2017-08-06T01:04:13.518Z,48.9
2017-08-06T01:05:15.649Z,48.5
2017-08-06T01:06:17.449Z,48.4
2017-08-06T01:07:19.249Z,48.5
2017-08-06T01:08:20.749Z,48.5
2017-08-06T01:09:22.881Z,48.4
2017-08-06T01:10:25.013Z,48.4
2017-08-06T01:11:26.803Z,48.4
2017-08-06T01:12:28.270Z,48.5
2017-08-06T01:13:30.048Z,48.5
2017-08-06T01:14:31.849Z,48.5
2017-08-06T01:15:33.977Z,48.6
2017-08-06T01:16:36.105Z,48.4
2017-08-06T01:17:37.902Z,48.4
2017-08-06T01:18:39.344Z,48.5
2017-08-06T01:19:41.479Z,48.6
2017-08-06T01:20:42.921Z,48.6
2017-08-06T01:21:45.056Z,48.5
2017-08-06T01:22:47.188Z,48.5
2017-08-06T01:23:49.320Z,48.5
2017-08-06T01:24:51.450Z,48.4
2017-08-06T01:25:53.239Z,48.5
2017-08-06T01:26:54.681Z,48.5
2017-08-06T01:27:56.478Z,48.5
2017-08-06T01:28:58.276Z,48.6
2017-08-06T01:30:00.081Z,48.5
2017-08-06T01:31:01.853Z,48.6
2017-08-06T01:32:03.984Z,48.6
2017-08-06T01:33:05.759Z,48.5
2017-08-06T01:34:07.559Z,48.5
2017-08-06T01:35:08.670Z,48.6
2017-08-06T01:36:10.466Z,48.4
2017-08-06T01:37:12.245Z,48.6
2017-08-06T01:38:14.372Z,48.3
2017-08-06T01:39:16.171Z,48.3
2017-08-06T01:40:17.967Z,48.5
2017-08-06T01:41:20.131Z,48.4
2017-08-06T01:42:22.261Z,48.5
2017-08-06T01:43:24.059Z,48.5
2017-08-06T01:44:25.861Z,48.6
2017-08-06T01:45:27.657Z,48.6
2017-08-06T01:46:29.792Z,48.6
2017-08-06T01:47:31.262Z,48.3
2017-08-06T01:48:32.729Z,48.4
2017-08-06T01:49:34.524Z,48.4
2017-08-06T01:50:36.657Z,48.5
2017-08-06T01:51:38.431Z,48.3
2017-08-06T01:52:40.560Z,48.6
2017-08-06T01:53:42.690Z,48.7
2017-08-06T01:54:44.489Z,48.3
2017-08-06T01:55:46.620Z,48.4
2017-08-06T01:56:48.423Z,48.3
2017-08-06T01:57:50.553Z,48.5
2017-08-06T01:58:52.353Z,48.2
2017-08-06T01:59:54.166Z,48.6
2017-08-06T02:00:55.953Z,48.3
2017-08-06T02:01:58.082Z,48.3
2017-08-06T02:03:00.230Z,48.7
2017-08-06T02:04:02.361Z,48.3
2017-08-06T02:05:04.493Z,48.4
2017-08-06T02:06:05.964Z,48.7
2017-08-06T02:07:08.094Z,48.3
2017-08-06T02:08:10.229Z,48.6
2017-08-06T02:09:12.025Z,48.5
2017-08-06T02:10:13.162Z,48.8
2017-08-06T02:11:14.997Z,48.5
2017-08-06T02:12:16.795Z,48.2
2017-08-06T02:13:18.928Z,48.5
2017-08-06T02:14:20.726Z,48.7
2017-08-06T02:15:21.850Z,48.3
2017-08-06T02:16:23.650Z,48.3
2017-08-06T02:17:25.096Z,48.3
2017-08-06T02:18:27.227Z,48.5
2017-08-06T02:19:29.366Z,48.6
2017-08-06T02:20:30.807Z,48.5
2017-08-06T02:21:32.607Z,48.6
2017-08-06T02:22:34.408Z,48.4
2017-08-06T02:23:36.191Z,48.5
2017-08-06T02:24:38.319Z,48.3
2017-08-06T02:25:40.121Z,48.5
2017-08-06T02:26:41.917Z,48.3
2017-08-06T02:27:43.720Z,48.4
2017-08-06T02:28:45.852Z,48.4
2017-08-06T02:29:47.984Z,48.3
2017-08-06T02:30:50.116Z,48.4
2017-08-06T02:31:51.914Z,48.6
2017-08-06T02:32:53.358Z,48.5
2017-08-06T02:33:55.489Z,48.6
2017-08-06T02:34:57.619Z,48.5
2017-08-06T02:35:59.064Z,48.6
2017-08-06T02:37:00.868Z,48.5
2017-08-06T02:38:02.997Z,48.6
2017-08-06T02:39:04.794Z,48.5
2017-08-06T02:40:06.264Z,48.4
2017-08-06T02:41:08.069Z,48.4
2017-08-06T02:42:09.869Z,48.7
2017-08-06T02:43:11.641Z,48.4
2017-08-06T02:44:13.112Z,48.6
2017-08-06T02:45:15.241Z,48.6
2017-08-06T02:46:17.039Z,48.4
2017-08-06T02:47:18.838Z,48.6
2017-08-06T02:48:20.967Z,48.6
2017-08-06T02:49:22.433Z,48.5
2017-08-06T02:50:24.563Z,48.5
2017-08-06T02:51:26.692Z,48.6
2017-08-06T02:52:28.491Z,48.6
2017-08-06T02:53:30.620Z,48.7
2017-08-06T02:54:32.419Z,48.4
2017-08-06T02:55:34.551Z,48.6
2017-08-06T02:56:36.682Z,48.4
2017-08-06T02:57:38.810Z,48.6
2017-08-06T02:58:40.942Z,48.5
2017-08-06T02:59:42.095Z,48.6
2017-08-06T03:00:44.245Z,48.5
2017-08-06T03:01:46.379Z,48.6
2017-08-06T03:02:48.508Z,48.7
2017-08-06T03:03:50.305Z,48.6
2017-08-06T03:04:52.105Z,48.4
2017-08-06T03:05:53.576Z,48.7
2017-08-06T03:06:55.043Z,48.4
2017-08-06T03:07:57.173Z,48.5
2017-08-06T03:08:59.340Z,48.3
2017-08-06T03:10:01.471Z,48.6
2017-08-06T03:11:03.268Z,48.6
2017-08-06T03:12:05.048Z,48.6
2017-08-06T03:13:06.846Z,48.4
2017-08-06T03:14:08.643Z,48.5
2017-08-06T03:15:10.494Z,48
2017-08-06T03:16:12.294Z,48.7
2017-08-06T03:17:14.094Z,48.7
2017-08-06T03:18:16.223Z,48.3
2017-08-06T03:19:18.017Z,48.1
2017-08-06T03:20:20.147Z,48.6
2017-08-06T03:21:22.280Z,48.1
2017-08-06T03:22:24.078Z,48.4
2017-08-06T03:23:25.524Z,48.7
2017-08-06T03:24:27.323Z,48.9
2017-08-06T03:25:29.098Z,48.4
2017-08-06T03:26:30.877Z,48.9
2017-08-06T03:27:32.676Z,48.8
2017-08-06T03:28:34.814Z,48.2
2017-08-06T03:29:36.587Z,48.9
2017-08-06T03:30:38.384Z,48.8
2017-08-06T03:31:40.512Z,48.2
2017-08-06T03:32:42.645Z,48.2
2017-08-06T03:33:44.447Z,48.7
2017-08-06T03:34:46.243Z,48.5
2017-08-06T03:35:48.044Z,48.2
2017-08-06T03:36:49.822Z,48.2
2017-08-06T03:37:51.962Z,48
2017-08-06T03:38:53.091Z,48.6
2017-08-06T03:39:55.227Z,48.7
2017-08-06T03:40:57.362Z,48.2
2017-08-06T03:41:59.159Z,48.5
2017-08-06T03:43:00.603Z,48.2
2017-08-06T03:44:02.431Z,48.2
2017-08-06T03:45:03.900Z,48.2
2017-08-06T03:46:05.371Z,48.1
2017-08-06T03:47:07.498Z,48.9
2017-08-06T03:48:08.948Z,48.4
2017-08-06T03:49:10.094Z,48.4
2017-08-06T03:50:11.559Z,48.1
2017-08-06T03:51:13.359Z,48.6
2017-08-06T03:52:15.159Z,48.3
2017-08-06T03:53:17.295Z,48.2
2017-08-06T03:54:18.413Z,48.2
2017-08-06T03:55:19.880Z,48.2
2017-08-06T03:56:21.344Z,48.5
2017-08-06T03:57:23.477Z,48.3
2017-08-06T03:58:25.264Z,48.3
2017-08-06T03:59:27.398Z,48.4
2017-08-06T04:00:28.844Z,48.4
2017-08-06T04:01:30.290Z,48.4
2017-08-06T04:02:32.081Z,48.2
2017-08-06T04:03:34.216Z,48.4
2017-08-06T04:04:36.350Z,48.4
2017-08-06T04:05:38.154Z,48.4
2017-08-06T04:06:39.293Z,48.2
2017-08-06T04:07:41.425Z,48.3
2017-08-06T04:08:43.224Z,48.2
2017-08-06T04:09:45.022Z,48.4
2017-08-06T04:10:46.819Z,48.4
2017-08-06T04:11:48.951Z,48.2
2017-08-06T04:12:50.750Z,48.3
2017-08-06T04:13:52.885Z,48.4
2017-08-06T04:14:55.011Z,48.4
2017-08-06T04:15:57.143Z,48.4
2017-08-06T04:16:58.941Z,48.4
2017-08-06T04:18:00.387Z,48.2
2017-08-06T04:19:02.187Z,48.4
2017-08-06T04:20:04.316Z,48.4
2017-08-06T04:21:06.112Z,48.2
2017-08-06T04:22:08.249Z,48.2
2017-08-06T04:23:10.023Z,48.3
2017-08-06T04:24:12.154Z,48.4
2017-08-06T04:25:14.297Z,48.7
2017-08-06T04:26:15.755Z,48.5
2017-08-06T04:27:17.888Z,48
2017-08-06T04:28:20.024Z,47.9
2017-08-06T04:29:21.820Z,48.4
2017-08-06T04:30:23.950Z,48
2017-08-06T04:31:26.081Z,48.3
2017-08-06T04:32:27.882Z,48
2017-08-06T04:33:29.690Z,48.2
2017-08-06T04:34:31.488Z,48
2017-08-06T04:35:32.934Z,48.4
2017-08-06T04:36:34.424Z,48.2
2017-08-06T04:37:35.529Z,47.9
2017-08-06T04:38:37.659Z,48
2017-08-06T04:39:39.126Z,47.9
2017-08-06T04:40:40.929Z,48
2017-08-06T04:41:42.063Z,47.9
2017-08-06T04:42:43.531Z,48.1
2017-08-06T04:43:45.662Z,48
2017-08-06T04:44:47.133Z,48.2
2017-08-06T04:45:48.911Z,48
2017-08-06T04:46:50.389Z,48
2017-08-06T04:47:52.188Z,48.1
2017-08-06T04:48:53.985Z,47.9
2017-08-06T04:49:56.117Z,47.9
2017-08-06T04:50:57.917Z,48.1
2017-08-06T04:51:59.715Z,47.9
2017-08-06T04:53:01.854Z,47.9
2017-08-06T04:54:03.991Z,48.4
2017-08-06T04:55:06.126Z,48
2017-08-06T04:56:07.925Z,48.3
2017-08-06T04:57:10.057Z,48.2
2017-08-06T04:58:12.189Z,48
2017-08-06T04:59:13.639Z,48
2017-08-06T05:00:15.417Z,48
2017-08-06T05:01:17.215Z,48.1
2017-08-06T05:02:18.663Z,48
2017-08-06T05:03:20.442Z,48.1
2017-08-06T05:04:22.240Z,47.9
2017-08-06T05:05:24.374Z,48
2017-08-06T05:06:26.175Z,47.7
2017-08-06T05:07:28.311Z,47.5
2017-08-06T05:08:30.109Z,48.1
2017-08-06T05:09:31.909Z,48
2017-08-06T05:10:34.038Z,48.2
2017-08-06T05:11:35.836Z,48.2
2017-08-06T05:12:37.638Z,48.1
2017-08-06T05:13:39.436Z,48.1
2017-08-06T05:14:41.213Z,47.6
2017-08-06T05:15:43.349Z,48
2017-08-06T05:16:45.128Z,47.9
2017-08-06T05:17:46.926Z,48.4
2017-08-06T05:18:48.728Z,47.9
2017-08-06T05:19:50.860Z,48
2017-08-06T05:20:52.995Z,48
2017-08-06T05:21:54.461Z,47.9
2017-08-06T05:22:55.908Z,47.9
2017-08-06T05:23:58.039Z,47.7
2017-08-06T05:24:59.818Z,47.8
2017-08-06T05:26:01.943Z,47.8
2017-08-06T05:27:03.746Z,48.4
2017-08-06T05:28:05.543Z,47.7
2017-08-06T05:29:06.986Z,47.7
2017-08-06T05:30:08.455Z,47.8
2017-08-06T05:31:10.230Z,47.7
2017-08-06T05:32:11.684Z,47.7
2017-08-06T05:33:13.125Z,47.6
2017-08-06T05:34:14.928Z,47.7
2017-08-06T05:35:16.730Z,47.9
2017-08-06T05:36:18.860Z,48
2017-08-06T05:37:20.999Z,47.7
2017-08-06T05:38:22.803Z,47.8
2017-08-06T05:39:24.595Z,47.9
2017-08-06T05:40:26.392Z,47.7
2017-08-06T05:41:28.194Z,47.7
2017-08-06T05:42:29.993Z,48
2017-08-06T05:43:31.096Z,47.7
2017-08-06T05:44:32.905Z,47.8
2017-08-06T05:45:35.029Z,47.9
2017-08-06T05:46:36.827Z,47.7
2017-08-06T05:47:38.605Z,47.9
2017-08-06T05:48:40.401Z,47.7
2017-08-06T05:49:42.203Z,48.1
2017-08-06T05:50:44.337Z,47.8
2017-08-06T05:51:46.133Z,47.9
2017-08-06T05:52:48.265Z,47.9
2017-08-06T05:53:49.707Z,48.2
2017-08-06T05:54:51.841Z,47.8
2017-08-06T05:55:53.972Z,47.7
2017-08-06T05:56:55.420Z,47.7
2017-08-06T05:57:56.883Z,47.7
2017-08-06T05:58:58.356Z,47.8
2017-08-06T06:00:00.156Z,47.8
2017-08-06T06:01:02.288Z,47.6
2017-08-06T06:02:03.756Z,47.8
2017-08-06T06:03:05.212Z,48
2017-08-06T06:04:07.342Z,47.9
2017-08-06T06:05:09.116Z,47.7
2017-08-06T06:06:11.255Z,47.8
2017-08-06T06:07:13.488Z,47.7
2017-08-06T06:08:15.620Z,47.7
2017-08-06T06:09:17.426Z,47.7
2017-08-06T06:10:19.557Z,47.6
2017-08-06T06:11:21.692Z,47.5
2017-08-06T06:12:23.491Z,47.2
2017-08-06T06:13:25.628Z,47.1
2017-08-06T06:14:27.406Z,47.3
2017-08-06T06:15:29.198Z,47.1
2017-08-06T06:16:30.315Z,47.3
2017-08-06T06:17:32.444Z,47.2
2017-08-06T06:18:34.581Z,47
2017-08-06T06:19:36.712Z,47.2
2017-08-06T06:20:38.857Z,47.3
2017-08-06T06:21:40.654Z,47.1
2017-08-06T06:22:42.441Z,47.2
2017-08-06T06:23:44.576Z,47.2
2017-08-06T06:24:46.707Z,47.1
2017-08-06T06:25:48.516Z,47.1
2017-08-06T06:26:50.660Z,47.4
2017-08-06T06:27:52.795Z,47.2
2017-08-06T06:28:54.932Z,47.2
2017-08-06T06:29:57.066Z,47.4
2017-08-06T06:30:58.874Z,47.3
2017-08-06T06:32:00.339Z,47.1
2017-08-06T06:33:02.520Z,47.2
2017-08-06T06:34:04.307Z,47.1
2017-08-06T06:35:06.082Z,47.2
2017-08-06T06:36:07.887Z,47.1
2017-08-06T06:37:09.337Z,47.2
2017-08-06T06:38:10.458Z,47.2
2017-08-06T06:39:12.238Z,47.2
2017-08-06T06:40:14.037Z,47.1
2017-08-06T06:41:15.509Z,47.1
2017-08-06T06:42:16.986Z,47
2017-08-06T06:43:18.787Z,47.2
2017-08-06T06:44:20.917Z,47.3
2017-08-06T06:45:22.717Z,47.2
2017-08-06T06:46:24.514Z,47.1
2017-08-06T06:47:26.655Z,47
2017-08-06T06:48:28.788Z,47.2
2017-08-06T06:49:30.592Z,46.9
2017-08-06T06:50:32.725Z,46.9
2017-08-06T06:51:34.861Z,46.8
2017-08-06T06:52:36.324Z,46.9
2017-08-06T06:53:37.445Z,46.8
2017-08-06T06:54:38.922Z,47
2017-08-06T06:55:41.053Z,47.1
2017-08-06T06:56:42.855Z,47.1
2017-08-06T06:57:44.986Z,47.1
2017-08-06T06:58:46.789Z,47.1
2017-08-06T06:59:48.923Z,47.1
2017-08-06T07:00:50.392Z,47.1
2017-08-06T07:01:52.531Z,47.2
2017-08-06T07:02:54.662Z,47
2017-08-06T07:03:55.776Z,47.1
2017-08-06T07:04:57.580Z,47
2017-08-06T07:05:59.384Z,47.2
2017-08-06T07:07:01.192Z,47
2017-08-06T07:08:03.324Z,47.3
2017-08-06T07:09:05.126Z,46.9
2017-08-06T07:10:07.257Z,46.9
2017-08-06T07:11:08.728Z,47.1
2017-08-06T07:12:10.507Z,47
2017-08-06T07:13:11.953Z,46.9
2017-08-06T07:14:13.404Z,46.9
2017-08-06T07:15:15.192Z,47.1
2017-08-06T07:16:17.002Z,46.7
2017-08-06T07:17:19.139Z,47.2
2017-08-06T07:18:21.266Z,47.1
2017-08-06T07:19:22.715Z,46.9
2017-08-06T07:20:24.519Z,46.9
2017-08-06T07:21:26.648Z,46.9
2017-08-06T07:22:28.782Z,47.3
2017-08-06T07:23:30.916Z,46.9
2017-08-06T07:24:33.048Z,47
2017-08-06T07:25:35.183Z,47
2017-08-06T07:26:36.984Z,46.9
2017-08-06T07:27:38.456Z,47.1
2017-08-06T07:28:40.253Z,46.9
2017-08-06T07:29:42.056Z,46.8
2017-08-06T07:30:43.857Z,47.2
2017-08-06T07:31:45.640Z,47.2
2017-08-06T07:32:47.776Z,46.8
2017-08-06T07:33:49.909Z,46.9
2017-08-06T07:34:52.042Z,46.9
2017-08-06T07:35:53.825Z,46.8
2017-08-06T07:36:55.614Z,46.9
2017-08-06T07:37:57.068Z,46.9
2017-08-06T07:38:58.872Z,46.9
2017-08-06T07:40:00.338Z,46.9
2017-08-06T07:41:01.808Z,47
2017-08-06T07:42:03.261Z,47
2017-08-06T07:43:05.060Z,47
2017-08-06T07:44:07.193Z,46.9
2017-08-06T07:45:08.641Z,46.9
2017-08-06T07:46:10.111Z,46.8
2017-08-06T07:47:11.914Z,46.6
2017-08-06T07:48:14.045Z,46.7
2017-08-06T07:49:15.845Z,47
2017-08-06T07:50:18.084Z,46.9
2017-08-06T07:51:19.868Z,46.9
2017-08-06T07:52:21.653Z,46.9
2017-08-06T07:53:23.785Z,46.9
2017-08-06T07:54:25.923Z,47.1
2017-08-06T07:55:27.722Z,46.8
2017-08-06T07:56:29.540Z,46.9
2017-08-06T07:57:30.995Z,47.1
2017-08-06T07:58:32.774Z,47.1
2017-08-06T07:59:34.914Z,47.1
2017-08-06T08:00:36.389Z,46.9
2017-08-06T08:01:38.536Z,46.8
2017-08-06T08:02:40.338Z,47.1
2017-08-06T08:03:42.475Z,47.2
2017-08-06T08:04:44.278Z,46.6
2017-08-06T08:05:46.084Z,46.9
2017-08-06T08:06:47.882Z,47
2017-08-06T08:07:50.019Z,47
2017-08-06T08:08:52.157Z,46.9
2017-08-06T08:09:53.934Z,46.7
2017-08-06T08:10:56.075Z,47
2017-08-06T08:11:57.181Z,47
2017-08-06T08:12:58.984Z,46.7
2017-08-06T08:14:01.124Z,46.9
2017-08-06T08:15:02.924Z,46.7
2017-08-06T08:16:04.392Z,46.8
2017-08-06T08:17:05.839Z,46.7
2017-08-06T08:18:07.644Z,46.7
2017-08-06T08:19:09.424Z,46.7
2017-08-06T08:20:11.555Z,46.7
2017-08-06T08:21:13.355Z,47
2017-08-06T08:22:15.489Z,46.9
2017-08-06T08:23:17.290Z,47
2017-08-06T08:24:19.077Z,46.7
2017-08-06T08:25:20.872Z,46.8
2017-08-06T08:26:23.017Z,46.6
2017-08-06T08:27:24.821Z,47.1
2017-08-06T08:28:26.605Z,46.7
2017-08-06T08:29:28.403Z,46.8
2017-08-06T08:30:29.184Z,46.8
2017-08-06T08:31:31.316Z,46.9
2017-08-06T08:32:33.450Z,46.9
2017-08-06T08:33:34.898Z,46.8
2017-08-06T08:34:36.677Z,47.2
2017-08-06T08:35:38.811Z,46.9
2017-08-06T08:36:40.609Z,47.1
2017-08-06T08:37:42.741Z,47
2017-08-06T08:38:44.215Z,47.1
2017-08-06T08:39:45.990Z,46.7
2017-08-06T08:40:47.793Z,47
2017-08-06T08:41:49.243Z,46.7
2017-08-06T08:42:51.042Z,46.7
2017-08-06T08:43:53.173Z,46.7
2017-08-06T08:44:54.973Z,46.7
2017-08-06T08:45:56.423Z,47
2017-08-06T08:46:58.225Z,47
2017-08-06T08:47:59.697Z,46.8
2017-08-06T08:49:00.818Z,46.7
2017-08-06T08:50:02.290Z,47
2017-08-06T08:51:04.092Z,46.7
2017-08-06T08:52:05.894Z,46.8
2017-08-06T08:53:08.032Z,46.8
2017-08-06T08:54:09.833Z,46.8
2017-08-06T08:55:11.613Z,47
2017-08-06T08:56:13.397Z,46.9
2017-08-06T08:57:15.531Z,46.9
2017-08-06T08:58:17.660Z,46.7
2017-08-06T08:59:19.126Z,47
2017-08-06T09:00:20.930Z,46.9
2017-08-06T09:01:23.062Z,46.5
2017-08-06T09:02:24.509Z,46.5
2017-08-06T09:03:26.313Z,46.7
2017-08-06T09:04:28.444Z,46.6
2017-08-06T09:05:30.225Z,46.6
2017-08-06T09:06:32.357Z,46.8
2017-08-06T09:07:33.472Z,46.9
2017-08-06T09:08:34.938Z,46.8
2017-08-06T09:09:36.404Z,46.8
2017-08-06T09:10:38.537Z,46.6
2017-08-06T09:11:40.675Z,46.7
2017-08-06T09:12:42.142Z,46.5
2017-08-06T09:13:43.945Z,46.4
2017-08-06T09:14:45.736Z,46.6
2017-08-06T09:15:47.205Z,46.3
2017-08-06T09:16:49.004Z,46.4
2017-08-06T09:17:50.782Z,46.6
2017-08-06T09:18:52.929Z,46.5
2017-08-06T09:19:55.065Z,46.6
2017-08-06T09:20:57.197Z,46.8
2017-08-06T09:21:58.981Z,46.7
2017-08-06T09:23:00.121Z,46.8
2017-08-06T09:24:01.944Z,46.6
2017-08-06T09:25:03.096Z,46.6
2017-08-06T09:26:05.235Z,46.7
2017-08-06T09:27:07.132Z,47
2017-08-06T09:28:09.266Z,47
2017-08-06T09:29:10.713Z,46.4
2017-08-06T09:30:12.518Z,46.9
2017-08-06T09:31:13.974Z,47
2017-08-06T09:32:15.878Z,46.9
2017-08-06T09:33:18.031Z,46.7
2017-08-06T09:34:20.165Z,47
2017-08-06T09:35:21.635Z,46.9
2017-08-06T09:36:23.765Z,47.1
2017-08-06T09:37:25.568Z,46.7
2017-08-06T09:38:27.369Z,46.7
2017-08-06T09:39:28.484Z,46.9
2017-08-06T09:40:30.615Z,47.1
2017-08-06T09:41:32.396Z,46.9
2017-08-06T09:42:34.183Z,46.6
2017-08-06T09:43:35.978Z,46.7
2017-08-06T09:44:37.761Z,46.9
2017-08-06T09:45:39.556Z,47
2017-08-06T09:46:41.697Z,46.8
2017-08-06T09:47:43.827Z,46.9
2017-08-06T09:48:45.635Z,47
2017-08-06T09:49:47.409Z,46.9
2017-08-06T09:50:48.854Z,46.6
2017-08-06T09:51:50.660Z,46.3
2017-08-06T09:52:52.793Z,46.5
2017-08-06T09:53:54.596Z,46.4
2017-08-06T09:54:56.047Z,46.4
2017-08-06T09:55:57.829Z,46.5
2017-08-06T09:56:59.299Z,46.8
2017-08-06T09:58:01.432Z,46.4
2017-08-06T09:59:02.878Z,46.6
2017-08-06T10:00:04.660Z,46.6
2017-08-06T10:01:06.465Z,46.3
2017-08-06T10:02:07.934Z,46.6
2017-08-06T10:03:10.073Z,46.6
2017-08-06T10:04:11.537Z,46.7
2017-08-06T10:05:12.665Z,46.6
2017-08-06T10:06:14.466Z,46.5
2017-08-06T10:07:16.600Z,46.6
2017-08-06T10:08:18.732Z,46.3
2017-08-06T10:09:20.509Z,46.4
2017-08-06T10:10:22.640Z,46.4
2017-08-06T10:11:24.444Z,46.5
2017-08-06T10:12:25.894Z,46.3
2017-08-06T10:13:27.698Z,46.4
2017-08-06T10:14:29.834Z,46.4
2017-08-06T10:15:31.966Z,46.5
2017-08-06T10:16:33.745Z,46.6
2017-08-06T10:17:35.212Z,46.5
2017-08-06T10:18:37.013Z,46.5
2017-08-06T10:19:39.150Z,46.7
2017-08-06T10:20:41.284Z,46.6
2017-08-06T10:21:42.754Z,46.9
2017-08-06T10:22:44.202Z,46.8
2017-08-06T10:23:46.336Z,46.8
2017-08-06T10:24:48.470Z,46.7
2017-08-06T10:25:50.278Z,46.4
2017-08-06T10:26:52.081Z,46.7
2017-08-06T10:27:54.214Z,46.5
2017-08-06T10:28:56.012Z,46.6
2017-08-06T10:29:57.813Z,46.7
2017-08-06T10:30:59.947Z,46.7
2017-08-06T10:32:01.086Z,46.4
2017-08-06T10:33:03.221Z,46.5
2017-08-06T10:34:05.024Z,46.5
2017-08-06T10:35:06.135Z,46.3
2017-08-06T10:36:07.941Z,46.7
2017-08-06T10:37:09.406Z,46.4
2017-08-06T10:38:11.210Z,46.2
2017-08-06T10:39:13.077Z,46.5
2017-08-06T10:40:14.196Z,46.7
2017-08-06T10:41:15.645Z,46.3
2017-08-06T10:42:16.761Z,46.2
2017-08-06T10:43:18.562Z,46.2
2017-08-06T10:44:20.342Z,46.2
2017-08-06T10:45:22.145Z,46.4
2017-08-06T10:46:23.592Z,46.4
2017-08-06T10:47:25.396Z,46.5
2017-08-06T10:48:27.198Z,46.5
2017-08-06T10:49:29.004Z,46.4
2017-08-06T10:50:30.469Z,46.7
2017-08-06T10:51:31.916Z,46.3
2017-08-06T10:52:34.049Z,46.3
2017-08-06T10:53:36.185Z,46.7
2017-08-06T10:54:37.958Z,46.5
2017-08-06T10:55:39.763Z,46.3
2017-08-06T10:56:41.567Z,46.3
2017-08-06T10:57:43.348Z,46.4
2017-08-06T10:58:45.484Z,46.5
2017-08-06T10:59:47.620Z,46.3
2017-08-06T11:00:49.750Z,46.2
2017-08-06T11:01:50.885Z,46.2
2017-08-06T11:02:53.017Z,46
2017-08-06T11:03:55.150Z,45.9
2017-08-06T11:04:56.310Z,46.1
2017-08-06T11:05:58.117Z,46
2017-08-06T11:07:00.256Z,45.8
2017-08-06T11:08:02.058Z,46.3
2017-08-06T11:09:04.189Z,46.1
2017-08-06T11:10:06.355Z,45.8
2017-08-06T11:11:08.149Z,46.1
2017-08-06T11:12:09.596Z,46
2017-08-06T11:13:11.729Z,46.5
2017-08-06T11:14:13.187Z,46.1
2017-08-06T11:15:14.992Z,46
2017-08-06T11:16:16.796Z,45.7
2017-08-06T11:17:18.933Z,45.9
2017-08-06T11:18:20.043Z,46.1
2017-08-06T11:19:22.176Z,45.7
2017-08-06T11:20:23.954Z,45.6
2017-08-06T11:21:26.088Z,45.6
2017-08-06T11:22:27.888Z,45.8
2017-08-06T11:23:30.022Z,45.4
2017-08-06T11:24:31.498Z,46
2017-08-06T11:25:32.942Z,45.7
2017-08-06T11:26:34.738Z,46.1
2017-08-06T11:27:36.542Z,46.1
2017-08-06T11:28:38.344Z,46.1
2017-08-06T11:29:40.483Z,46.1
2017-08-06T11:30:41.949Z,46.2
2017-08-06T11:31:43.419Z,46.1
2017-08-06T11:32:45.554Z,46.1
2017-08-06T11:33:47.022Z,45.7
2017-08-06T11:34:49.153Z,46.2
2017-08-06T11:35:51.288Z,46.1
2017-08-06T11:36:53.423Z,46.1
2017-08-06T11:37:54.866Z,45.9
2017-08-06T11:38:56.667Z,46
2017-08-06T11:39:58.134Z,45.9
2017-08-06T11:40:59.601Z,45.6
2017-08-06T11:42:01.407Z,45.8
2017-08-06T11:43:02.878Z,45.9
2017-08-06T11:44:05.027Z,46.1
2017-08-06T11:45:06.472Z,45.8
2017-08-06T11:46:08.610Z,45.9
2017-08-06T11:47:10.409Z,45.8
2017-08-06T11:48:12.540Z,45.8
2017-08-06T11:49:14.673Z,46.1
2017-08-06T11:50:16.800Z,46.1
2017-08-06T11:51:17.913Z,46
2017-08-06T11:52:20.043Z,46.1
2017-08-06T11:53:21.824Z,45.9
2017-08-06T11:54:23.606Z,45.9
2017-08-06T11:55:25.407Z,45.9
2017-08-06T11:56:27.537Z,46.2
2017-08-06T11:57:29.339Z,46
2017-08-06T11:58:30.784Z,45.5
2017-08-06T11:59:32.919Z,45.9
2017-08-06T12:00:34.402Z,46.1
2017-08-06T12:01:36.174Z,45.7
2017-08-06T12:02:38.312Z,45.8
2017-08-06T12:03:40.447Z,46.1
2017-08-06T12:04:42.576Z,46.3
2017-08-06T12:05:44.713Z,46.3
2017-08-06T12:06:46.182Z,46.1
2017-08-06T12:07:48.321Z,46.4
2017-08-06T12:08:50.101Z,46.3
2017-08-06T12:09:51.213Z,45.8
2017-08-06T12:10:53.349Z,45.8
2017-08-06T12:11:55.152Z,46.1
2017-08-06T12:12:56.932Z,46.1
2017-08-06T12:13:58.733Z,46.1
2017-08-06T12:15:00.512Z,45.8
2017-08-06T12:16:02.318Z,45.9
2017-08-06T12:17:03.765Z,46.1
2017-08-06T12:18:05.895Z,45.9
2017-08-06T12:19:08.031Z,46.1
2017-08-06T12:20:09.812Z,45.6
2017-08-06T12:21:11.282Z,45.7
2017-08-06T12:22:13.136Z,45.9
2017-08-06T12:23:14.593Z,46.1
2017-08-06T12:24:16.396Z,45.7
2017-08-06T12:25:18.172Z,45.7
2017-08-06T12:26:19.621Z,45.6
2017-08-06T12:27:21.395Z,45.6
2017-08-06T12:28:23.532Z,45.5
2017-08-06T12:29:25.667Z,46
2017-08-06T12:30:27.800Z,45.7
2017-08-06T12:31:29.944Z,45.6
2017-08-06T12:32:31.737Z,45.9
2017-08-06T12:33:33.520Z,45.6
2017-08-06T12:34:35.320Z,45.3
2017-08-06T12:35:36.433Z,45.6
2017-08-06T12:36:38.565Z,45.4
2017-08-06T12:37:40.340Z,45.4
2017-08-06T12:38:41.787Z,45.6
2017-08-06T12:39:43.592Z,45
2017-08-06T12:40:45.726Z,45.5
2017-08-06T12:41:47.201Z,45.6
2017-08-06T12:42:49.332Z,45
2017-08-06T12:43:51.469Z,45.1
2017-08-06T12:44:52.580Z,45.4
2017-08-06T12:45:54.356Z,45.5
2017-08-06T12:46:55.822Z,45.5
2017-08-06T12:47:57.957Z,45.6
2017-08-06T12:48:59.404Z,45.5
2017-08-06T12:50:00.875Z,46
2017-08-06T12:51:02.657Z,45.7
2017-08-06T12:52:04.789Z,45.7
2017-08-06T12:53:06.587Z,45.5
2017-08-06T12:54:08.391Z,45.5
2017-08-06T12:55:10.172Z,45.6
2017-08-06T12:56:11.620Z,45.7
2017-08-06T12:57:13.070Z,45.6
2017-08-06T12:58:15.202Z,45.6
2017-08-06T12:59:17.339Z,45.6
2017-08-06T13:00:19.472Z,45.6
2017-08-06T13:01:21.248Z,45.7
2017-08-06T13:02:23.382Z,45.7
2017-08-06T13:03:25.194Z,45.5
2017-08-06T13:04:26.992Z,45.5
2017-08-06T13:05:28.794Z,45.5
2017-08-06T13:06:30.931Z,45.4
2017-08-06T13:07:32.713Z,45.6
2017-08-06T13:08:34.518Z,45.5
2017-08-06T13:09:36.316Z,45.7
2017-08-06T13:10:38.122Z,45.5
2017-08-06T13:11:40.257Z,45.3
2017-08-06T13:12:41.712Z,45.4
2017-08-06T13:13:43.841Z,45.3
2017-08-06T13:14:45.641Z,45.7
2017-08-06T13:15:47.443Z,45.5
2017-08-06T13:16:49.239Z,45.6
2017-08-06T13:17:50.764Z,45.7
2017-08-06T13:18:52.557Z,45.5
2017-08-06T13:19:54.021Z,45.6
2017-08-06T13:20:56.154Z,45.6
2017-08-06T13:21:57.273Z,45.7
2017-08-06T13:22:59.464Z,45.5
2017-08-06T13:24:00.916Z,45.4
2017-08-06T13:25:02.389Z,45.6
2017-08-06T13:26:04.181Z,44.6
2017-08-06T13:27:05.978Z,44.6
2017-08-06T13:28:08.111Z,45.5
2017-08-06T13:29:10.244Z,45.1
2017-08-06T13:30:12.049Z,45.4
2017-08-06T13:31:14.182Z,45.4
2017-08-06T13:32:15.978Z,45.6
2017-08-06T13:33:17.784Z,45.1
2017-08-06T13:34:19.913Z,45.7
2017-08-06T13:35:21.035Z,44.6
2017-08-06T13:36:22.843Z,44.8
2017-08-06T13:37:24.972Z,45
2017-08-06T13:38:26.773Z,44.9
2017-08-06T13:39:28.581Z,44.7
2017-08-06T13:40:30.712Z,45.2
2017-08-06T13:41:32.846Z,44.8
2017-08-06T13:42:34.984Z,45
2017-08-06T13:43:36.783Z,44.9
2017-08-06T13:44:38.919Z,45.2
2017-08-06T13:45:40.743Z,45.3
2017-08-06T13:46:42.537Z,44.9
2017-08-06T13:47:44.339Z,45.2